Time;durP1;ratioP1;P1;durP2;ratioP2;P2;SDS_P1;SDS_P2;PMS_P1;PMS_P2;Temp;Humidity;BMP_temperature;BMP_pressure;BME280_temperature;BME280_humidity;BME280_pressure;Samples;Min_cycle;Max_cycle;Signal;HPM_P1;HPM_P2
2023/07/17 00:00:33;;;;;;;3.30;2.47;;;18.10;99.90;;;;;;5071783;28;20473;-73
2023/07/17 00:03:01;;;;;;;3.03;2.50;;;18.10;99.90;;;;;;5071346;28;20974;-73
2023/07/17 00:05:27;;;;;;;2.20;2.00;;;18.10;99.90;;;;;;5071582;28;20464;-73
2023/07/17 00:07:54;;;;;;;4.83;2.50;;;18.10;99.90;;;;;;5071176;28;20482;-73
2023/07/17 00:10:21;;;;;;;2.20;2.00;;;18.10;99.90;;;;;;5071974;28;20471;-73
2023/07/17 00:12:48;;;;;;;5.57;2.30;;;18.10;99.90;;;;;;5071692;28;20462;-73
2023/07/17 00:15:14;;;;;;;3.83;2.70;;;18.10;99.90;;;;;;5067506;28;20553;-73
2023/07/17 00:17:41;;;;;;;2.27;2.03;;;18.10;99.90;;;;;;5052240;28;20842;-73
2023/07/17 00:20:11;;;;;;;2.10;1.90;;;18.20;99.90;;;;;;5051951;28;20468;-73
2023/07/17 00:22:38;;;;;;;5.63;2.50;;;18.20;99.90;;;;;;5051673;28;20460;-73
2023/07/17 00:25:06;;;;;;;3.77;2.73;;;18.20;99.90;;;;;;5050945;28;20475;-73
2023/07/17 00:27:34;;;;;;;4.43;2.40;;;18.30;99.90;;;;;;5051586;28;20497;-73
2023/07/17 00:30:01;;;;;;;4.53;2.10;;;18.30;99.90;;;;;;5052026;28;21195;-73
2023/07/17 00:32:27;;;;;;;2.17;1.97;;;18.30;99.90;;;;;;5051162;28;20461;-73
2023/07/17 00:34:54;;;;;;;3.60;2.40;;;18.30;99.90;;;;;;5050442;28;20461;-74
2023/07/17 00:37:22;;;;;;;5.60;1.93;;;18.30;99.90;;;;;;5050181;28;20476;-73
2023/07/17 00:39:49;;;;;;;4.03;2.27;;;18.30;99.90;;;;;;5051354;28;20466;-73
2023/07/17 00:42:16;;;;;;;4.30;2.10;;;18.30;99.90;;;;;;5051150;28;20480;-74
2023/07/17 00:44:43;;;;;;;3.80;2.30;;;18.30;99.90;;;;;;5050842;28;20460;-73
2023/07/17 00:47:10;;;;;;;2.00;1.73;;;18.30;99.90;;;;;;5050644;28;21012;-73
2023/07/17 00:49:38;;;;;;;2.27;2.07;;;18.30;99.90;;;;;;5050919;28;20467;-73
2023/07/17 00:52:06;;;;;;;2.70;2.40;;;18.30;99.90;;;;;;5050957;28;20464;-73
2023/07/17 00:54:35;;;;;;;2.60;1.90;;;18.30;99.90;;;;;;5050253;28;20980;-73
2023/07/17 00:57:04;;;;;;;2.87;2.40;;;18.30;99.90;;;;;;5050618;28;20485;-73
2023/07/17 00:59:31;;;;;;;3.30;2.10;;;18.40;99.90;;;;;;5050764;28;20515;-74
2023/07/17 01:01:59;;;;;;;2.73;1.80;;;18.40;99.90;;;;;;5051588;28;20468;-74
2023/07/17 01:04:26;;;;;;;3.47;2.00;;;18.40;99.90;;;;;;5070439;28;20465;-73
2023/07/17 01:06:52;;;;;;;2.70;2.20;;;18.40;99.90;;;;;;5070366;28;20494;-73
2023/07/17 01:09:20;;;;;;;2.60;2.17;;;18.40;99.90;;;;;;5070465;28;20828;-74
2023/07/17 01:11:48;;;;;;;2.63;2.17;;;18.40;99.90;;;;;;5070700;28;20465;-74
2023/07/17 01:14:16;;;;;;;2.53;2.00;;;18.50;99.90;;;;;;5069896;28;20514;-74
2023/07/17 01:16:43;;;;;;;2.70;2.33;;;18.50;99.90;;;;;;5070539;28;20476;-73
2023/07/17 01:19:10;;;;;;;5.50;2.37;;;18.50;99.90;;;;;;5070278;28;20976;-73
2023/07/17 01:21:42;;;;;;;2.70;1.90;;;18.50;99.90;;;;;;5070754;28;20466;-73
2023/07/17 01:24:10;;;;;;;2.10;1.90;;;18.50;99.90;;;;;;5070094;28;20482;-74
2023/07/17 01:26:37;;;;;;;3.20;2.00;;;18.50;99.90;;;;;;5069802;28;21010;-74
2023/07/17 01:29:04;;;;;;;3.63;2.43;;;18.50;99.90;;;;;;5070092;28;20477;-73
2023/07/17 01:31:30;;;;;;;2.87;2.07;;;18.50;99.90;;;;;;5070114;28;20520;-73
2023/07/17 01:33:57;;;;;;;3.50;2.17;;;18.50;99.90;;;;;;5069846;28;20469;-73
2023/07/17 01:36:26;;;;;;;2.60;1.97;;;18.50;99.90;;;;;;5069799;28;20535;-73
2023/07/17 01:38:54;;;;;;;3.60;2.37;;;18.50;99.90;;;;;;5070446;28;20469;-73
2023/07/17 01:41:22;;;;;;;2.23;2.00;;;18.40;99.90;;;;;;5070129;28;20528;-73
2023/07/17 01:43:49;;;;;;;3.50;2.47;;;18.40;99.90;;;;;;5054293;28;20465;-73
2023/07/17 01:46:16;;;;;;;2.50;2.27;;;18.30;99.90;;;;;;5049472;28;20814;-73
2023/07/17 01:48:43;;;;;;;2.33;1.93;;;18.20;99.90;;;;;;5053726;28;20488;-73
2023/07/17 01:51:09;;;;;;;5.80;2.40;;;18.20;99.90;;;;;;5054494;28;20460;-73
2023/07/17 01:53:36;;;;;;;5.00;2.50;;;18.10;99.90;;;;;;5054361;28;20454;-73
2023/07/17 01:56:03;;;;;;;2.60;2.30;;;18.10;99.90;;;;;;5053842;28;20462;-73
2023/07/17 02:00:59;;;;;;;2.80;2.50;;;18.00;99.90;;;;;;4973412;28;20557;-74
2023/07/17 02:03:26;;;;;;;3.00;2.17;;;17.90;99.90;;;;;;4975018;28;20471;-74
2023/07/17 02:05:52;;;;;;;3.00;2.13;;;17.90;99.90;;;;;;4974962;28;20467;-74
2023/07/17 02:08:19;;;;;;;4.17;2.47;;;17.90;99.90;;;;;;4974629;28;20494;-75
2023/07/17 02:10:49;;;;;;;2.23;2.03;;;17.90;99.90;;;;;;4975250;28;20466;-74
2023/07/17 02:13:15;;;;;;;2.70;1.90;;;17.90;99.90;;;;;;4974878;28;20494;-74
2023/07/17 02:15:42;;;;;;;3.40;1.90;;;17.80;99.90;;;;;;4974456;28;20472;-75
2023/07/17 02:18:10;;;;;;;1.93;1.80;;;17.80;99.90;;;;;;4974837;28;20492;-74
2023/07/17 02:20:37;;;;;;;2.03;1.90;;;17.80;99.90;;;;;;4974890;28;20465;-75
2023/07/17 02:23:03;;;;;;;3.30;2.40;;;17.80;99.90;;;;;;4974809;28;20476;-75
2023/07/17 02:25:30;;;;;;;2.90;2.63;;;17.70;99.90;;;;;;4974421;28;20979;-74
2023/07/17 02:27:57;;;;;;;3.10;2.17;;;17.80;99.90;;;;;;4974797;28;20486;-74
2023/07/17 02:30:24;;;;;;;2.50;2.30;;;17.80;99.90;;;;;;4974381;28;20464;-74
2023/07/17 02:32:51;;;;;;;2.53;2.30;;;17.80;99.90;;;;;;4974848;28;20527;-74
2023/07/17 02:35:19;;;;;;;3.40;2.90;;;17.70;99.90;;;;;;4974008;28;20468;-74
2023/07/17 02:37:46;;;;;;;4.93;2.90;;;17.70;99.90;;;;;;4974618;28;20484;-74
2023/07/17 02:40:13;;;;;;;3.70;2.67;;;17.70;99.90;;;;;;4974331;28;20475;-74
2023/07/17 02:42:40;;;;;;;2.90;2.30;;;17.70;99.90;;;;;;4974713;28;20487;-74
2023/07/17 02:45:08;;;;;;;2.27;2.07;;;17.70;99.90;;;;;;4973557;28;20465;-76
2023/07/17 02:47:35;;;;;;;2.90;2.40;;;17.60;99.90;;;;;;4974360;28;20515;-74
2023/07/17 02:50:02;;;;;;;2.73;2.20;;;17.60;99.90;;;;;;4974199;28;20462;-76
2023/07/17 02:52:34;;;;;;;2.83;2.00;;;17.60;99.90;;;;;;4974195;28;20531;-76
2023/07/17 02:55:01;;;;;;;4.80;2.80;;;17.60;99.90;;;;;;4974000;28;20500;-76
2023/07/17 02:57:28;;;;;;;3.50;2.80;;;17.60;99.90;;;;;;4966174;28;20512;-76
2023/07/17 02:59:56;;;;;;;4.10;2.47;;;17.60;99.90;;;;;;4972822;28;20472;-76
2023/07/17 03:02:23;;;;;;;4.90;2.47;;;17.50;99.90;;;;;;4974156;28;20480;-76
2023/07/17 03:04:49;;;;;;;2.50;2.30;;;17.50;99.90;;;;;;4974413;28;20472;-76
2023/07/17 03:07:16;;;;;;;2.10;1.90;;;17.50;99.90;;;;;;4973685;28;20490;-76
2023/07/17 03:09:44;;;;;;;2.90;2.53;;;17.50;99.90;;;;;;4974110;28;20487;-76
2023/07/17 03:12:11;;;;;;;5.37;2.77;;;17.40;99.90;;;;;;4973774;28;20461;-76
2023/07/17 03:14:38;;;;;;;2.63;2.43;;;17.40;99.90;;;;;;4972870;28;20467;-76
2023/07/17 03:17:05;;;;;;;3.27;2.73;;;17.40;99.90;;;;;;4973841;28;20485;-75
2023/07/17 03:19:32;;;;;;;2.10;1.90;;;17.40;99.90;;;;;;4973821;28;20471;-76
2023/07/17 03:21:58;;;;;;;2.67;2.20;;;17.30;99.90;;;;;;4974148;28;20503;-75
2023/07/17 03:24:25;;;;;;;2.83;2.33;;;17.30;99.90;;;;;;4973584;28;20562;-76
2023/07/17 03:26:53;;;;;;;3.40;2.87;;;17.30;99.90;;;;;;4973737;28;20576;-75
2023/07/17 03:29:20;;;;;;;2.50;2.23;;;17.20;99.90;;;;;;4973466;28;20473;-75
2023/07/17 03:31:46;;;;;;;4.97;2.63;;;17.20;99.90;;;;;;4973975;28;20469;-76
2023/07/17 03:34:13;;;;;;;3.27;2.40;;;17.20;99.90;;;;;;4973332;28;20468;-74
2023/07/17 03:36:40;;;;;;;2.70;1.97;;;17.20;99.90;;;;;;4972216;28;20508;-75
2023/07/17 03:39:07;;;;;;;3.87;2.90;;;17.20;99.90;;;;;;4972727;28;20467;-73
2023/07/17 03:41:33;;;;;;;3.00;2.30;;;17.20;99.90;;;;;;4973789;28;20469;-72
2023/07/17 03:44:02;;;;;;;2.30;2.10;;;17.20;99.90;;;;;;4973236;28;20467;-72
2023/07/17 03:46:29;;;;;;;3.40;2.80;;;17.10;99.90;;;;;;4959779;28;20836;-73
2023/07/17 03:48:56;;;;;;;4.33;2.70;;;17.10;99.90;;;;;;4957743;28;20481;-72
2023/07/17 03:51:23;;;;;;;2.53;2.33;;;17.10;99.90;;;;;;4956077;28;20835;-72
2023/07/17 03:53:51;;;;;;;3.00;2.20;;;17.10;99.90;;;;;;4954486;28;20780;-72
2023/07/17 03:56:17;;;;;;;2.20;2.00;;;17.10;99.90;;;;;;4954279;28;20952;-72
2023/07/17 03:58:44;;;;;;;3.20;2.37;;;17.00;99.90;;;;;;4954639;28;20480;-72
2023/07/17 04:01:12;;;;;;;3.80;2.60;;;17.00;99.90;;;;;;4954481;28;20499;-72
2023/07/17 04:03:39;;;;;;;2.97;2.27;;;17.00;99.90;;;;;;4963225;28;20456;-73
2023/07/17 04:06:06;;;;;;;2.20;2.00;;;17.00;99.90;;;;;;4959091;28;20465;-74
2023/07/17 04:08:33;;;;;;;3.13;2.63;;;17.00;99.90;;;;;;4972770;28;20499;-73
2023/07/17 04:11:00;;;;;;;2.53;2.10;;;17.00;99.90;;;;;;4975322;28;20994;-73
2023/07/17 04:13:27;;;;;;;3.27;2.47;;;16.90;99.90;;;;;;4973498;28;21189;-73
2023/07/17 04:15:54;;;;;;;4.07;2.90;;;16.90;99.90;;;;;;4981868;28;20468;-69
2023/07/17 04:18:22;;;;;;;2.57;2.37;;;16.90;99.90;;;;;;4973136;28;20485;-73
2023/07/17 04:20:49;;;;;;;2.50;2.20;;;16.80;99.90;;;;;;4971477;28;20465;-72
2023/07/17 04:23:15;;;;;;;2.90;2.60;;;16.80;99.90;;;;;;4974554;28;20459;-72
2023/07/17 04:25:42;;;;;;;3.43;2.70;;;16.90;99.90;;;;;;4970636;28;20495;-73
2023/07/17 04:28:09;;;;;;;3.33;2.40;;;16.90;99.90;;;;;;4964223;28;21017;-72
2023/07/17 04:30:37;;;;;;;2.97;2.23;;;17.00;99.90;;;;;;4972273;28;20477;-73
2023/07/17 04:35:37;;;;;;;2.83;2.57;;;17.00;99.90;;;;;;4983576;28;20469;-69
2023/07/17 04:38:04;;;;;;;4.00;2.77;;;17.00;99.90;;;;;;4973374;28;20507;-69
2023/07/17 04:40:31;;;;;;;2.70;2.10;;;17.00;99.90;;;;;;4968894;28;20459;-69
2023/07/17 04:42:59;;;;;;;2.87;2.57;;;17.00;99.90;;;;;;4969249;28;20808;-70
2023/07/17 04:45:25;;;;;;;4.00;2.47;;;17.00;99.90;;;;;;4968523;28;20466;-69
2023/07/17 04:47:52;;;;;;;2.43;2.23;;;17.10;99.90;;;;;;4970362;28;20487;-70
2023/07/17 04:50:19;;;;;;;3.33;2.90;;;17.10;99.90;;;;;;4971904;28;20465;-69
2023/07/17 04:52:47;;;;;;;2.60;1.90;;;17.10;99.90;;;;;;4972111;28;20471;-69
2023/07/17 04:55:14;;;;;;;5.50;2.53;;;17.10;99.90;;;;;;4971840;28;20840;-69
2023/07/17 04:57:40;;;;;;;6.10;2.60;;;17.10;99.90;;;;;;4971862;28;20483;-69
2023/07/17 05:00:11;;;;;;;2.70;2.13;;;17.20;99.90;;;;;;4971947;28;20461;-69
2023/07/17 05:02:37;;;;;;;2.60;2.30;;;17.20;99.90;;;;;;4971807;28;20475;-69
2023/07/17 05:05:05;;;;;;;3.07;2.70;;;17.20;99.90;;;;;;4971199;28;20553;-69
2023/07/17 05:07:31;;;;;;;2.20;2.00;;;17.20;99.90;;;;;;4971514;28;20987;-69
2023/07/17 05:09:59;;;;;;;3.10;2.60;;;17.20;99.90;;;;;;4971797;28;20472;-69
2023/07/17 05:12:26;;;;;;;2.37;1.93;;;17.30;99.90;;;;;;4971597;28;20487;-69
2023/07/17 05:14:53;;;;;;;2.87;2.10;;;17.30;99.90;;;;;;4971290;28;20598;-69
2023/07/17 05:17:19;;;;;;;3.70;3.23;;;17.30;99.90;;;;;;4971593;28;20490;-69
2023/07/17 05:19:46;;;;;;;3.33;2.37;;;17.40;99.90;;;;;;4971455;28;20474;-68
2023/07/17 05:22:13;;;;;;;4.47;2.70;;;17.50;99.90;;;;;;4971255;28;20462;-69
2023/07/17 05:24:40;;;;;;;2.70;2.20;;;17.50;99.90;;;;;;4970925;28;20461;-69
2023/07/17 05:27:08;;;;;;;2.37;2.17;;;17.60;99.90;;;;;;4971560;28;20488;-68
2023/07/17 05:29:35;;;;;;;2.87;2.30;;;17.60;99.90;;;;;;4971301;28;20479;-69
2023/07/17 05:32:03;;;;;;;4.07;2.93;;;17.70;99.90;;;;;;4971378;28;20962;-69
2023/07/17 05:34:29;;;;;;;3.20;2.57;;;17.70;99.90;;;;;;4970857;28;20472;-69
2023/07/17 05:36:56;;;;;;;2.57;2.37;;;17.70;99.90;;;;;;4971169;28;20496;-69
2023/07/17 05:39:23;;;;;;;2.53;2.20;;;17.80;99.90;;;;;;4971017;28;20472;-69
2023/07/17 05:41:50;;;;;;;3.10;2.30;;;17.80;99.90;;;;;;4971414;28;21001;-69
2023/07/17 05:44:18;;;;;;;2.07;1.90;;;17.90;99.90;;;;;;4971372;28;20483;-69
2023/07/17 05:46:45;;;;;;;4.27;2.70;;;17.90;99.90;;;;;;4971203;28;20484;-70
2023/07/17 05:49:12;;;;;;;2.63;2.37;;;18.00;99.90;;;;;;4971535;28;20483;-70
2023/07/17 05:51:38;;;;;;;2.87;2.60;;;18.00;99.90;;;;;;4971299;28;20844;-69
2023/07/17 05:54:05;;;;;;;2.90;2.03;;;18.00;99.90;;;;;;4971026;28;20471;-69
2023/07/17 05:56:32;;;;;;;3.23;2.67;;;18.00;99.90;;;;;;4970768;28;20468;-69
2023/07/17 05:58:58;;;;;;;2.20;2.00;;;18.00;99.90;;;;;;4971069;28;20816;-69
2023/07/17 06:01:26;;;;;;;2.70;2.47;;;18.10;99.90;;;;;;4971267;28;20847;-69
2023/07/17 06:03:54;;;;;;;3.30;2.43;;;18.10;99.90;;;;;;4970981;28;20465;-69
2023/07/17 06:06:20;;;;;;;2.70;2.07;;;18.10;99.90;;;;;;4970654;28;20988;-69
2023/07/17 06:08:47;;;;;;;3.63;2.13;;;18.20;99.90;;;;;;4971147;28;20483;-69
2023/07/17 06:11:14;;;;;;;3.30;2.53;;;18.20;99.90;;;;;;4971089;28;20469;-68
2023/07/17 06:13:41;;;;;;;3.53;2.10;;;18.30;99.90;;;;;;4970917;28;20469;-69
2023/07/17 06:16:07;;;;;;;4.30;2.43;;;18.40;99.90;;;;;;4970695;28;20476;-69
2023/07/17 06:18:35;;;;;;;3.00;2.03;;;18.50;99.90;;;;;;4971239;28;20484;-69
2023/07/17 06:21:03;;;;;;;3.50;2.40;;;18.60;99.90;;;;;;4971153;28;20465;-68
2023/07/17 06:23:29;;;;;;;2.80;2.50;;;18.70;99.90;;;;;;4971165;28;20858;-69
2023/07/17 06:25:56;;;;;;;4.07;2.77;;;18.80;99.90;;;;;;4970303;28;20464;-68
2023/07/17 06:28:23;;;;;;;3.17;2.83;;;18.90;99.90;;;;;;4970884;28;20493;-69
2023/07/17 06:30:49;;;;;;;2.90;2.57;;;18.90;99.90;;;;;;4981571;28;20465;-72
2023/07/17 06:33:16;;;;;;;3.40;2.17;;;19.00;99.90;;;;;;4983423;28;20469;-69
2023/07/17 06:35:45;;;;;;;2.93;2.20;;;19.20;99.90;;;;;;4972919;28;20472;-69
2023/07/17 06:38:12;;;;;;;1.90;1.70;;;19.20;99.90;;;;;;4974453;28;20490;-69
2023/07/17 06:40:39;;;;;;;2.50;2.30;;;19.30;99.90;;;;;;4978631;28;20471;-69
2023/07/17 06:43:06;;;;;;;3.57;3.10;;;19.30;99.90;;;;;;4979669;28;20460;-69
2023/07/17 06:45:34;;;;;;;4.10;2.30;;;19.40;99.90;;;;;;4983322;28;20469;-69
2023/07/17 06:48:01;;;;;;;3.43;2.20;;;19.50;99.90;;;;;;4988118;28;20485;-69
2023/07/17 06:50:28;;;;;;;3.60;2.83;;;19.50;99.90;;;;;;4973997;28;20906;-69
2023/07/17 06:52:56;;;;;;;2.80;2.23;;;19.60;99.90;;;;;;4973327;28;20965;-69
2023/07/17 06:55:23;;;;;;;3.10;2.27;;;19.60;99.90;;;;;;4988955;28;20493;-69
2023/07/17 06:57:50;;;;;;;3.97;2.33;;;19.70;99.90;;;;;;4993092;28;20486;-69
2023/07/17 07:00:17;;;;;;;3.43;2.73;;;19.80;99.90;;;;;;4993458;28;20458;-69
2023/07/17 07:02:44;;;;;;;3.57;2.40;;;19.80;99.90;;;;;;4992640;28;20462;-69
2023/07/17 07:05:10;;;;;;;2.90;2.60;;;19.90;99.90;;;;;;4992532;28;20573;-69
2023/07/17 07:07:37;;;;;;;3.03;2.73;;;20.00;99.90;;;;;;4993284;28;20485;-69
2023/07/17 07:10:07;;;;;;;2.90;2.37;;;20.10;99.90;;;;;;4992530;28;20478;-69
2023/07/17 07:12:34;;;;;;;4.53;2.90;;;20.20;99.90;;;;;;4993063;28;20463;-69
2023/07/17 07:15:00;;;;;;;3.40;2.80;;;20.30;99.90;;;;;;4992679;28;20890;-69
2023/07/17 07:17:27;;;;;;;4.53;2.73;;;20.30;99.90;;;;;;4992157;28;20502;-69
2023/07/17 07:19:54;;;;;;;7.13;3.87;;;20.30;99.90;;;;;;4992802;28;20462;-69
2023/07/17 07:22:21;;;;;;;2.73;2.43;;;20.40;99.90;;;;;;4992992;28;20961;-69
2023/07/17 07:24:47;;;;;;;4.17;2.83;;;20.50;99.90;;;;;;4992279;28;20482;-69
2023/07/17 07:27:15;;;;;;;2.90;2.60;;;20.60;99.90;;;;;;4992809;28;20485;-69
2023/07/17 07:29:42;;;;;;;3.60;2.87;;;20.70;99.90;;;;;;4992150;28;21013;-69
2023/07/17 07:32:09;;;;;;;3.13;2.73;;;20.80;99.90;;;;;;4992452;28;20801;-69
2023/07/17 07:34:36;;;;;;;4.90;3.07;;;20.80;99.90;;;;;;4992359;28;20877;-69
2023/07/17 07:37:03;;;;;;;4.80;3.53;;;20.90;99.90;;;;;;4992533;28;21026;-69
2023/07/17 07:39:29;;;;;;;3.97;3.60;;;21.00;99.90;;;;;;4992131;28;20494;-69
2023/07/17 07:41:56;;;;;;;3.77;3.10;;;21.00;99.90;;;;;;4992287;28;20466;-69
2023/07/17 07:44:24;;;;;;;3.10;2.67;;;21.00;99.90;;;;;;4992304;28;20463;-69
2023/07/17 07:46:51;;;;;;;4.57;3.50;;;21.10;99.90;;;;;;4991207;28;20491;-68
2023/07/17 07:49:18;;;;;;;3.57;3.27;;;21.10;99.90;;;;;;4992674;28;20754;-69
2023/07/17 07:51:45;;;;;;;6.73;3.70;;;21.10;99.90;;;;;;4992416;28;20462;-69
2023/07/17 07:54:12;;;;;;;4.43;3.00;;;21.20;99.90;;;;;;4991208;28;20470;-69
2023/07/17 07:56:38;;;;;;;4.17;3.00;;;21.30;99.90;;;;;;4991866;28;20519;-69
2023/07/17 07:59:05;;;;;;;4.23;3.57;;;21.30;99.90;;;;;;4992363;28;20458;-69
2023/07/17 08:01:33;;;;;;;3.10;2.63;;;21.40;99.90;;;;;;4991870;28;20470;-69
2023/07/17 08:04:00;;;;;;;5.53;3.70;;;21.40;99.90;;;;;;4991829;28;20890;-69
2023/07/17 08:06:26;;;;;;;3.60;3.30;;;21.50;99.90;;;;;;4991654;28;20465;-69
2023/07/17 08:08:53;;;;;;;3.30;2.87;;;21.60;99.90;;;;;;4991421;28;20487;-69
2023/07/17 08:11:22;;;;;;;3.53;3.20;;;21.70;99.90;;;;;;4992288;28;20509;-69
2023/07/17 08:13:48;;;;;;;3.60;3.00;;;21.80;99.90;;;;;;4991699;28;20458;-69
2023/07/17 08:16:15;;;;;;;5.10;3.80;;;21.80;99.90;;;;;;4991459;28;20472;-69
2023/07/17 08:18:43;;;;;;;3.30;2.70;;;21.90;99.90;;;;;;4991365;28;20836;-69
2023/07/17 08:21:10;;;;;;;4.53;2.67;;;21.90;99.90;;;;;;4992136;28;20478;-68
2023/07/17 08:23:37;;;;;;;3.47;2.83;;;21.90;99.90;;;;;;4991270;28;20463;-69
2023/07/17 08:26:04;;;;;;;3.20;2.90;;;22.00;99.90;;;;;;4991362;28;20496;-69
2023/07/17 08:28:31;;;;;;;4.00;3.07;;;22.10;99.90;;;;;;4991853;28;20488;-69
2023/07/17 08:30:58;;;;;;;4.43;2.90;;;22.20;99.80;;;;;;4990600;28;20669;-69
2023/07/17 08:33:25;;;;;;;3.23;2.37;;;22.20;99.90;;;;;;4991942;28;20456;-68
2023/07/17 08:35:53;;;;;;;4.40;3.40;;;22.30;99.90;;;;;;4991153;28;20468;-69
2023/07/17 08:38:20;;;;;;;4.50;2.70;;;22.30;99.90;;;;;;4991792;28;20483;-69
2023/07/17 08:40:50;;;;;;;5.30;3.47;;;22.40;99.90;;;;;;4991551;28;20986;-69
2023/07/17 08:43:17;;;;;;;2.90;2.50;;;22.40;99.90;;;;;;4991366;28;20905;-68
2023/07/17 08:45:46;;;;;;;3.13;2.60;;;22.40;99.90;;;;;;4990601;28;20475;-71
2023/07/17 08:48:14;;;;;;;3.53;3.00;;;22.60;97.90;;;;;;4991698;28;20487;-68
2023/07/17 08:50:41;;;;;;;4.27;3.13;;;22.70;98.70;;;;;;4991344;28;20479;-69
2023/07/17 08:53:11;;;;;;;3.33;2.83;;;22.80;99.40;;;;;;4990695;28;21213;-69
2023/07/17 08:55:38;;;;;;;3.80;3.40;;;22.90;99.90;;;;;;4990180;28;20482;-69
2023/07/17 08:58:05;;;;;;;3.97;3.07;;;23.00;99.90;;;;;;4990401;28;20862;-69
2023/07/17 09:00:32;;;;;;;3.83;3.13;;;23.00;99.50;;;;;;4991654;28;20459;-69
2023/07/17 09:02:59;;;;;;;3.00;2.47;;;23.00;99.90;;;;;;4991132;28;20473;-69
2023/07/17 09:05:26;;;;;;;3.30;2.43;;;23.20;98.70;;;;;;4991009;28;20469;-69
2023/07/17 09:07:53;;;;;;;5.47;3.37;;;23.30;99.90;;;;;;4990920;28;20489;-69
2023/07/17 09:10:23;;;;;;;3.10;2.43;;;23.40;99.90;;;;;;4991595;28;20513;-69
2023/07/17 09:12:52;;;;;;;4.87;3.10;;;23.40;99.90;;;;;;4990855;28;21045;-69
2023/07/17 09:15:19;;;;;;;3.00;2.60;;;23.40;98.60;;;;;;4990979;28;20492;-69
2023/07/17 09:17:46;;;;;;;3.10;2.80;;;23.20;99.20;;;;;;4990831;28;20485;-69
2023/07/17 09:20:15;;;;;;;3.40;2.90;;;23.10;99.50;;;;;;4991220;28;20489;-68
2023/07/17 09:22:42;;;;;;;4.00;3.40;;;23.00;99.90;;;;;;4990954;28;20470;-69
2023/07/17 09:25:10;;;;;;;3.30;3.00;;;23.20;99.90;;;;;;4990785;28;20968;-69
2023/07/17 09:27:46;;;;;;;3.43;3.00;;;23.30;98.90;;;;;;4991435;28;20490;-69
2023/07/17 09:30:14;;;;;;;4.40;3.33;;;23.30;99.70;;;;;;4990914;28;21012;-69
2023/07/17 09:32:41;;;;;;;4.50;2.93;;;23.40;99.90;;;;;;4990858;28;20650;-69
2023/07/17 09:35:11;;;;;;;4.83;3.10;;;23.40;98.80;;;;;;4990404;28;20473;-70
2023/07/17 09:37:39;;;;;;;3.33;3.03;;;23.40;97.80;;;;;;4991015;28;20534;-69
2023/07/17 09:40:09;;;;;;;3.97;3.10;;;23.30;98.00;;;;;;4983031;28;20478;-69
2023/07/17 09:42:36;;;;;;;5.73;3.50;;;23.40;99.70;;;;;;4991077;28;20982;-70
2023/07/17 09:45:05;;;;;;;4.67;3.00;;;23.50;99.90;;;;;;4990152;28;20474;-69
2023/07/17 09:47:32;;;;;;;4.23;3.17;;;23.70;99.90;;;;;;4991021;28;20497;-69
2023/07/17 09:50:00;;;;;;;6.10;3.40;;;23.70;99.10;;;;;;4990446;28;20524;-69
2023/07/17 09:52:29;;;;;;;3.47;2.87;;;23.70;99.30;;;;;;4991043;28;20469;-69
2023/07/17 09:54:57;;;;;;;3.37;3.07;;;23.70;99.50;;;;;;4989953;28;20946;-69
2023/07/17 09:57:28;;;;;;;5.10;3.10;;;23.80;99.90;;;;;;4990713;28;20575;-69
2023/07/17 09:59:57;;;;;;;3.10;2.80;;;23.80;99.90;;;;;;4990355;28;20512;-69
2023/07/17 10:02:30;;;;;;;4.17;2.90;;;23.90;99.90;;;;;;4991015;28;20466;-69
2023/07/17 10:04:59;;;;;;;3.97;3.50;;;24.00;98.00;;;;;;4989906;28;20477;-69
2023/07/17 10:07:29;;;;;;;4.10;3.40;;;24.10;99.60;;;;;;4984946;28;21005;-69
2023/07/17 10:09:59;;;;;;;3.50;3.20;;;24.20;99.10;;;;;;4974572;28;20997;-70
2023/07/17 10:12:26;;;;;;;5.13;2.70;;;24.30;98.90;;;;;;4975396;28;20893;-69
2023/07/17 10:14:54;;;;;;;3.70;3.30;;;24.30;98.50;;;;;;4974369;28;20868;-69
2023/07/17 10:17:28;;;;;;;5.40;3.53;;;24.30;99.50;;;;;;4975560;28;20479;-69
2023/07/17 10:19:58;;;;;;;4.03;3.37;;;24.30;97.90;;;;;;4975139;28;20455;-70
2023/07/17 10:22:32;;;;;;;5.50;2.90;;;24.30;98.90;;;;;;4975352;28;20502;-69
2023/07/17 10:25:00;;;;;;;3.57;3.17;;;24.10;97.90;;;;;;4974572;28;20490;-70
2023/07/17 10:27:40;;;;;;;3.20;3.00;;;24.00;98.80;;;;;;4975275;28;20498;-70
2023/07/17 10:30:22;;;;;;;3.87;3.07;;;24.00;99.20;;;;;;4974864;28;20485;-69
2023/07/17 10:32:52;;;;;;;4.40;3.63;;;24.20;99.90;;;;;;4974896;28;20463;-68
2023/07/17 10:35:21;;;;;;;4.40;3.23;;;24.40;97.40;;;;;;5073339;23;20497;-71
2023/07/17 10:37:48;;;;;;;3.37;3.07;;;24.60;99.00;;;;;;5025698;28;21010;-71
2023/07/17 10:40:28;;;;;;;4.30;3.13;;;24.70;99.90;;;;;;5033798;28;20470;-71
2023/07/17 10:42:55;;;;;;;3.80;3.00;;;24.90;97.00;;;;;;5016016;28;20540;-71
2023/07/17 10:45:22;;;;;;;3.33;3.03;;;24.90;96.70;;;;;;5013701;28;20465;-71
2023/07/17 10:47:51;;;;;;;5.37;2.90;;;25.00;97.20;;;;;;5013791;28;20489;-70
2023/07/17 10:50:18;;;;;;;4.80;3.37;;;25.00;97.10;;;;;;5013838;28;20490;-71
2023/07/17 10:52:45;;;;;;;3.20;2.90;;;25.10;96.50;;;;;;5014264;28;20474;-71
2023/07/17 10:55:12;;;;;;;4.47;3.43;;;25.20;97.00;;;;;;5021711;28;20676;-70
2023/07/17 10:57:38;;;;;;;6.07;3.33;;;25.30;95.10;;;;;;5013637;28;20494;-71
2023/07/17 11:00:06;;;;;;;3.57;2.97;;;25.40;98.70;;;;;;5013843;28;20462;-71
2023/07/17 11:02:33;;;;;;;4.50;3.53;;;25.40;97.00;;;;;;5013826;28;20469;-71
2023/07/17 11:05:03;;;;;;;5.77;2.90;;;25.50;99.70;;;;;;5012704;28;20468;-71
2023/07/17 11:07:33;;;;;;;3.93;3.07;;;25.60;95.60;;;;;;5027464;28;20487;-71
2023/07/17 11:10:00;;;;;;;2.80;2.60;;;25.70;97.00;;;;;;5033006;28;20489;-71
2023/07/17 11:12:27;;;;;;;4.67;3.40;;;25.70;97.00;;;;;;5025176;28;20467;-71
2023/07/17 11:14:54;;;;;;;3.83;3.10;;;25.80;98.60;;;;;;5032546;28;20471;-71
2023/07/17 11:17:21;;;;;;;3.10;2.90;;;25.80;96.20;;;;;;5025183;28;20574;-70
2023/07/17 11:19:49;;;;;;;3.50;2.90;;;25.80;97.40;;;;;;5031898;28;20840;-71
2023/07/17 11:22:17;;;;;;;3.67;3.03;;;25.70;96.80;;;;;;5033268;28;20471;-71
2023/07/17 11:24:43;;;;;;;4.23;2.97;;;25.60;96.90;;;;;;5032406;28;20468;-71
2023/07/17 11:27:10;;;;;;;5.87;3.30;;;25.60;97.80;;;;;;5032764;28;20492;-71
2023/07/17 11:29:40;;;;;;;4.37;3.47;;;25.50;97.90;;;;;;5032739;28;20483;-71
2023/07/17 11:32:07;;;;;;;5.87;3.80;;;25.50;99.10;;;;;;5032904;28;20969;-71
2023/07/17 11:34:36;;;;;;;4.80;3.60;;;25.60;98.40;;;;;;5018337;28;20495;-71
2023/07/17 11:37:03;;;;;;;3.67;3.37;;;25.90;99.00;;;;;;5012463;28;20857;-71
2023/07/17 11:39:32;;;;;;;3.20;2.83;;;26.10;98.80;;;;;;5013084;28;20473;-71
2023/07/17 11:41:59;;;;;;;5.13;3.40;;;26.20;97.80;;;;;;5012442;28;20472;-71
2023/07/17 11:44:27;;;;;;;3.77;3.37;;;26.30;99.20;;;;;;5025780;28;20468;-71
2023/07/17 11:46:54;;;;;;;3.43;3.13;;;26.50;98.80;;;;;;5031633;28;20488;-71
2023/07/17 11:49:21;;;;;;;4.90;3.50;;;26.50;97.70;;;;;;5032349;28;20498;-70
2023/07/17 11:51:48;;;;;;;3.33;2.90;;;26.50;97.50;;;;;;5016682;28;20462;-71
2023/07/17 11:54:15;;;;;;;3.77;3.20;;;26.40;96.90;;;;;;5012305;28;20465;-70
2023/07/17 11:56:44;;;;;;;4.07;3.53;;;26.30;97.10;;;;;;5012215;28;20481;-71
2023/07/17 11:59:18;;;;;;;3.07;2.77;;;26.10;98.50;;;;;;5012551;28;20469;-71
2023/07/17 12:01:45;;;;;;;6.27;3.80;;;26.20;98.70;;;;;;5012715;28;20467;-71
2023/07/17 12:04:20;;;;;;;3.73;3.30;;;26.30;98.80;;;;;;5030832;28;20463;-71
2023/07/17 12:06:46;;;;;;;3.63;3.33;;;26.30;97.30;;;;;;5031498;28;20490;-71
2023/07/17 12:09:13;;;;;;;4.37;3.40;;;26.30;96.70;;;;;;5012995;28;20468;-71
2023/07/17 12:11:40;;;;;;;4.27;3.87;;;26.30;97.70;;;;;;5011998;28;21008;-70
2023/07/17 12:14:08;;;;;;;4.07;3.10;;;26.50;98.00;;;;;;5030064;28;20464;-71
2023/07/17 12:16:35;;;;;;;3.73;2.90;;;26.60;98.50;;;;;;5031573;28;20460;-71
2023/07/17 12:19:01;;;;;;;4.27;3.03;;;26.60;98.30;;;;;;5030752;28;20460;-71
2023/07/17 12:21:30;;;;;;;3.40;3.03;;;26.60;97.00;;;;;;5012142;28;20464;-71
2023/07/17 12:23:56;;;;;;;5.97;3.50;;;26.70;97.10;;;;;;5011384;28;20461;-71
2023/07/17 12:26:23;;;;;;;3.63;3.13;;;26.60;96.80;;;;;;5011681;28;20462;-71
2023/07/17 12:28:50;;;;;;;4.37;3.50;;;26.40;96.60;;;;;;5011892;28;20465;-71
2023/07/17 12:31:18;;;;;;;4.23;3.60;;;26.40;95.20;;;;;;5011418;28;21016;-71
2023/07/17 12:33:44;;;;;;;4.20;3.43;;;26.20;96.40;;;;;;5011670;28;20979;-71
2023/07/17 12:36:11;;;;;;;3.90;3.50;;;26.00;95.80;;;;;;5011044;28;20815;-71
2023/07/17 12:38:38;;;;;;;3.90;3.13;;;26.10;98.80;;;;;;5011372;28;20486;-71
2023/07/17 12:41:04;;;;;;;3.73;3.37;;;26.30;98.60;;;;;;5011728;28;20988;-71
2023/07/17 12:43:31;;;;;;;3.77;3.40;;;26.50;98.40;;;;;;5011617;28;20469;-71
2023/07/17 12:45:58;;;;;;;5.03;3.60;;;26.80;98.10;;;;;;5027267;28;20453;-71
2023/07/17 12:48:26;;;;;;;3.80;3.40;;;27.00;99.90;;;;;;5031333;28;20484;-71
2023/07/17 12:50:53;;;;;;;4.23;3.57;;;27.10;97.20;;;;;;5031885;28;20484;-71
2023/07/17 12:53:19;;;;;;;4.77;3.47;;;27.30;98.30;;;;;;5012207;28;20839;-71